Time;durP1;ratioP1;P1;durP2;ratioP2;P2;SDS_P1;SDS_P2;PMS_P1;PMS_P2;Temp;Humidity;BMP_temperature;BMP_pressure;BME280_temperature;BME280_humidity;BME280_pressure;Samples;Min_cycle;Max_cycle;Signal;HPM_P1;HPM_P2
2023/05/21 00:01:15;;;;;;;18.30;13.80;;;15.00;99.90;;;;;;5019637;28;20057;-86
2023/05/21 00:03:44;;;;;;;21.60;14.80;;;15.00;99.90;;;;;;5018187;28;20447;-82
2023/05/21 00:06:14;;;;;;;17.48;12.98;;;15.00;99.90;;;;;;5014728;28;20060;-84
2023/05/21 00:08:44;;;;;;;22.92;14.80;;;15.00;99.90;;;;;;5016514;28;20026;-84
2023/05/21 00:11:10;;;;;;;18.58;14.05;;;14.90;99.90;;;;;;5018771;28;20037;-79
2023/05/21 00:13:37;;;;;;;18.77;15.00;;;15.00;99.90;;;;;;5014501;28;20049;-83
2023/05/21 00:16:03;;;;;;;19.92;15.43;;;14.90;99.90;;;;;;4999776;28;20030;-83
2023/05/21 00:18:31;;;;;;;19.70;14.35;;;14.90;99.90;;;;;;5016177;28;20038;-82
2023/05/21 00:20:59;;;;;;;22.23;16.23;;;14.90;99.90;;;;;;5018132;28;20048;-87
2023/05/21 00:23:25;;;;;;;21.48;15.43;;;14.90;99.90;;;;;;4998340;28;20038;-81
2023/05/21 00:25:52;;;;;;;19.67;14.02;;;14.90;99.90;;;;;;5005513;28;20044;-82
2023/05/21 00:28:18;;;;;;;23.42;14.65;;;14.90;99.90;;;;;;5012898;28;20042;-84
2023/05/21 00:30:44;;;;;;;19.85;14.45;;;14.80;99.90;;;;;;5014761;28;20049;-86
2023/05/21 00:33:12;;;;;;;18.75;14.52;;;14.90;99.90;;;;;;5003200;28;20026;-85
2023/05/21 00:35:39;;;;;;;26.13;13.73;;;14.90;99.90;;;;;;4998206;28;20038;-86
2023/05/21 00:38:06;;;;;;;21.52;14.52;;;14.90;99.90;;;;;;5018818;28;20042;-86
2023/05/21 00:40:34;;;;;;;21.50;15.32;;;14.90;99.90;;;;;;5008838;28;20042;-87
2023/05/21 00:43:00;;;;;;;23.70;14.73;;;14.80;99.90;;;;;;5035371;28;20038;-88
2023/05/21 00:45:28;;;;;;;20.77;15.80;;;14.90;99.90;;;;;;5023027;28;20034;-87
2023/05/21 00:47:55;;;;;;;19.55;14.15;;;14.80;99.90;;;;;;5020018;28;20054;-90
2023/05/21 00:50:22;;;;;;;30.23;16.73;;;14.90;99.90;;;;;;5015090;28;20053;-83
2023/05/21 00:52:48;;;;;;;20.52;15.63;;;14.80;99.90;;;;;;5038888;28;20030;-84
2023/05/21 00:55:15;;;;;;;19.00;14.82;;;14.80;99.90;;;;;;5020381;28;20050;-85
2023/05/21 00:57:41;;;;;;;21.58;15.27;;;14.80;99.90;;;;;;5016831;28;20030;-86
2023/05/21 01:00:09;;;;;;;20.98;13.82;;;14.80;99.90;;;;;;5007977;28;20053;-85
2023/05/21 01:02:36;;;;;;;20.98;14.18;;;14.70;99.90;;;;;;5008682;28;20030;-85
2023/05/21 01:05:04;;;;;;;20.95;14.25;;;14.70;99.90;;;;;;5005878;28;20061;-85
2023/05/21 01:07:35;;;;;;;19.02;13.43;;;14.80;99.90;;;;;;4994088;28;20049;-83
2023/05/21 01:10:02;;;;;;;;;;;14.80;99.90;;;;;;5020036;28;20021;-87
2023/05/21 01:12:30;;;;;;;20.50;13.65;;;14.70;99.90;;;;;;5032709;28;20358;-82
2023/05/21 01:15:01;;;;;;;21.75;15.43;;;14.80;99.90;;;;;;5014619;28;20038;-85
2023/05/21 01:17:28;;;;;;;20.02;14.40;;;14.70;99.90;;;;;;5015014;28;20034;-81
2023/05/21 01:19:56;;;;;;;20.45;14.77;;;14.70;99.90;;;;;;5014775;28;20049;-81
2023/05/21 01:22:25;;;;;;;18.92;13.93;;;14.70;99.90;;;;;;5029475;28;20037;-85
2023/05/21 01:24:55;;;;;;;22.00;13.85;;;14.70;99.90;;;;;;5016044;28;20048;-83
2023/05/21 01:27:26;;;;;;;22.50;14.82;;;14.70;99.90;;;;;;5021681;28;20037;-85
2023/05/21 01:29:57;;;;;;;23.00;14.55;;;14.60;99.90;;;;;;5019738;28;20060;-85
2023/05/21 01:32:37;;;;;;;21.30;14.05;;;14.70;99.90;;;;;;5017783;28;20037;-83
2023/05/21 01:35:14;;;;;;;20.60;15.65;;;14.70;99.90;;;;;;5013312;28;20042;-85
2023/05/21 01:38:09;;;;;;;19.95;13.77;;;14.60;99.90;;;;;;5024226;28;20046;-82
2023/05/21 01:41:02;;;;;;;21.40;15.75;;;14.60;99.90;;;;;;4981518;28;20051;-79
2023/05/21 01:43:35;;;;;;;22.17;14.35;;;14.60;99.90;;;;;;4932440;28;20050;-81
2023/05/21 01:46:02;;;;;;;19.05;13.80;;;14.70;99.90;;;;;;4971564;28;20043;-82
2023/05/21 01:48:29;;;;;;;20.98;15.20;;;14.60;99.90;;;;;;4952005;28;20034;-82
2023/05/21 01:51:02;;;;;;;24.77;15.27;;;14.60;99.90;;;;;;4966678;28;20038;-82
2023/05/21 01:53:29;;;;;;;20.73;15.20;;;14.60;99.90;;;;;;4967797;28;20038;-81
2023/05/21 01:55:55;;;;;;;20.90;14.30;;;14.60;99.90;;;;;;4964738;28;20031;-80
2023/05/21 01:58:23;;;;;;;19.90;13.35;;;14.60;99.90;;;;;;4970005;28;20046;-80
2023/05/21 02:00:50;;;;;;;26.27;17.38;;;14.60;99.90;;;;;;4936612;28;20057;-80
2023/05/21 02:03:17;;;;;;;20.63;13.40;;;14.60;99.90;;;;;;4969520;28;20049;-83
2023/05/21 02:05:43;;;;;;;19.17;13.68;;;14.60;99.90;;;;;;4964470;28;20038;-81
2023/05/21 02:08:11;;;;;;;22.42;13.38;;;14.60;99.90;;;;;;4954699;28;20389;-82
2023/05/21 02:10:37;;;;;;;19.17;13.35;;;14.60;99.90;;;;;;4914435;29;20478;-82
2023/05/21 02:13:04;;;;;;;19.80;14.35;;;14.60;99.90;;;;;;4913660;29;20425;-85
2023/05/21 02:15:33;;;;;;;20.00;13.18;;;14.60;99.90;;;;;;4912580;29;20036;-82
2023/05/21 02:17:59;;;;;;;19.55;14.00;;;14.60;99.90;;;;;;4933217;28;20515;-84
2023/05/21 02:20:25;;;;;;;20.55;14.13;;;14.50;99.90;;;;;;4969506;28;20053;-81
2023/05/21 02:22:51;;;;;;;20.38;13.85;;;14.50;99.90;;;;;;4966258;28;20507;-81
2023/05/21 02:25:18;;;;;;;21.55;14.80;;;14.50;99.90;;;;;;4936569;28;20113;-82
2023/05/21 02:27:45;;;;;;;22.98;14.27;;;14.50;99.90;;;;;;4935672;28;20031;-83
2023/05/21 02:30:13;;;;;;;19.83;13.63;;;14.40;99.90;;;;;;4951892;28;20043;-82
2023/05/21 02:32:41;;;;;;;19.55;14.77;;;14.50;99.90;;;;;;4966351;28;20346;-80
2023/05/21 02:35:09;;;;;;;21.63;15.15;;;14.40;99.90;;;;;;4965994;28;20054;-82
2023/05/21 02:37:36;;;;;;;18.23;13.55;;;14.40;99.90;;;;;;4966851;28;20055;-80
2023/05/21 02:40:07;;;;;;;22.27;14.40;;;14.40;99.90;;;;;;4951583;28;20061;-82
2023/05/21 02:42:35;;;;;;;20.90;15.10;;;14.40;99.90;;;;;;4999389;28;20045;-82
2023/05/21 02:45:01;;;;;;;18.15;14.02;;;14.40;99.90;;;;;;4985528;28;20038;-81
2023/05/21 02:47:28;;;;;;;23.55;13.35;;;14.40;99.90;;;;;;5007725;28;20306;-80
2023/05/21 02:49:54;;;;;;;19.90;14.73;;;14.40;99.90;;;;;;5011557;28;20030;-84
2023/05/21 02:52:23;;;;;;;24.95;14.82;;;14.30;99.90;;;;;;5004996;28;20557;-82
2023/05/21 02:54:51;;;;;;;20.13;15.43;;;14.30;99.90;;;;;;5003859;28;20367;-84
2023/05/21 02:57:17;;;;;;;18.75;13.25;;;14.30;99.90;;;;;;5008772;28;20030;-84
2023/05/21 02:59:44;;;;;;;23.58;14.50;;;14.30;99.90;;;;;;4993232;28;20041;-83
2023/05/21 03:02:11;;;;;;;19.10;14.82;;;14.30;99.90;;;;;;5008622;28;20038;-83
2023/05/21 03:04:37;;;;;;;21.20;14.57;;;14.30;99.90;;;;;;5002468;28;20030;-85
2023/05/21 03:07:04;;;;;;;20.90;14.90;;;14.30;99.90;;;;;;5008567;28;20033;-85
2023/05/21 03:09:31;;;;;;;20.73;14.52;;;14.20;99.90;;;;;;5008949;28;20392;-82
2023/05/21 03:11:57;;;;;;;19.50;13.85;;;14.20;99.90;;;;;;5019227;28;20455;-80
2023/05/21 03:14:24;;;;;;;24.35;13.88;;;14.30;99.90;;;;;;5020579;28;20026;-82
2023/05/21 03:16:50;;;;;;;16.98;13.70;;;14.20;99.90;;;;;;5005610;28;20037;-81
2023/05/21 03:19:17;;;;;;;18.48;13.32;;;14.20;99.90;;;;;;5021957;28;20057;-79
2023/05/21 03:21:47;;;;;;;20.83;13.75;;;14.20;99.90;;;;;;5004734;28;20042;-80
2023/05/21 03:24:14;;;;;;;21.85;15.23;;;14.20;99.90;;;;;;5010018;28;20049;-79
2023/05/21 03:26:40;;;;;;;20.15;14.98;;;14.10;99.90;;;;;;5010911;28;20386;-77
2023/05/21 03:29:07;;;;;;;20.40;14.68;;;14.10;99.90;;;;;;4990894;28;20117;-83
2023/05/21 03:31:34;;;;;;;20.83;13.88;;;14.10;99.90;;;;;;5010805;28;20038;-81
2023/05/21 03:34:10;;;;;;;16.45;13.07;;;14.10;99.90;;;;;;5012591;28;20042;-81
2023/05/21 03:36:36;;;;;;;19.13;14.18;;;14.10;99.90;;;;;;4998544;28;20042;-82
2023/05/21 03:39:03;;;;;;;20.27;14.57;;;14.10;99.90;;;;;;5008688;28;20037;-79
2023/05/21 03:41:32;;;;;;;19.35;14.05;;;14.10;99.90;;;;;;5012157;28;20034;-80
2023/05/21 03:44:05;;;;;;;24.13;14.65;;;14.10;99.90;;;;;;5011460;28;20022;-84
2023/05/21 03:46:47;;;;;;;19.17;14.15;;;14.10;99.90;;;;;;5016883;28;20041;-82
2023/05/21 03:49:26;;;;;;;20.73;13.95;;;14.00;99.90;;;;;;5013727;28;20283;-82
2023/05/21 03:51:55;;;;;;;21.23;14.93;;;14.00;99.90;;;;;;5015304;28;20045;-82
2023/05/21 03:54:22;;;;;;;19.63;14.23;;;14.00;99.90;;;;;;5015090;28;20038;-81
2023/05/21 03:56:52;;;;;;;19.13;14.27;;;14.00;99.90;;;;;;5016180;28;20049;-82
2023/05/21 03:59:18;;;;;;;18.15;14.10;;;14.00;99.90;;;;;;5014177;28;20042;-81
2023/05/21 04:01:45;;;;;;;21.88;15.00;;;14.00;99.90;;;;;;4999258;28;20038;-84
2023/05/21 04:04:15;;;;;;;22.73;14.75;;;14.00;99.90;;;;;;5023601;28;20386;-81
2023/05/21 04:06:44;;;;;;;24.35;14.93;;;14.00;99.90;;;;;;5031989;28;20097;-79
2023/05/21 04:09:14;;;;;;;18.38;13.85;;;14.00;99.90;;;;;;5033118;28;20044;-81
2023/05/21 04:11:42;;;;;;;17.55;13.48;;;14.00;99.90;;;;;;5031237;28;20038;-78
2023/05/21 04:14:13;;;;;;;18.10;14.10;;;14.00;99.90;;;;;;5029784;28;20053;-79
2023/05/21 04:16:43;;;;;;;20.17;14.30;;;14.00;99.90;;;;;;5033135;28;20040;-79
2023/05/21 04:19:09;;;;;;;19.95;13.95;;;14.00;99.90;;;;;;5034511;28;20050;-82
2023/05/21 04:21:36;;;;;;;19.63;13.55;;;14.00;99.90;;;;;;5007154;28;20034;-83
2023/05/21 04:24:04;;;;;;;20.17;14.73;;;14.00;99.90;;;;;;5003357;28;20033;-83
2023/05/21 04:26:44;;;;;;;18.27;12.57;;;14.00;99.90;;;;;;4998172;28;20040;-81
2023/05/21 04:29:11;;;;;;;21.77;14.85;;;14.00;99.90;;;;;;5027909;28;20040;-84
2023/05/21 04:31:38;;;;;;;22.35;13.35;;;14.00;99.90;;;;;;4996017;28;20057;-81
2023/05/21 04:34:05;;;;;;;18.42;13.90;;;14.00;99.90;;;;;;5004770;28;20049;-81
2023/05/21 04:36:32;;;;;;;22.60;13.65;;;14.00;99.90;;;;;;5013908;28;20042;-82
2023/05/21 04:38:59;;;;;;;19.48;13.23;;;14.00;99.90;;;;;;5027031;28;20451;-81
2023/05/21 04:41:25;;;;;;;20.08;14.20;;;14.00;99.90;;;;;;4993678;28;20511;-79
2023/05/21 04:43:54;;;;;;;21.02;14.65;;;14.10;99.90;;;;;;4991364;28;20045;-80
2023/05/21 04:46:25;;;;;;;23.20;14.30;;;14.10;99.90;;;;;;4999508;28;20498;-81
2023/05/21 04:48:53;;;;;;;19.50;13.45;;;14.10;99.90;;;;;;4974048;28;20041;-82
2023/05/21 04:51:25;;;;;;;22.85;13.77;;;14.10;99.90;;;;;;4979771;28;20053;-81
2023/05/21 04:53:52;;;;;;;21.40;13.65;;;14.20;99.90;;;;;;4976239;28;20034;-80
2023/05/21 04:56:20;;;;;;;18.63;12.98;;;14.20;99.90;;;;;;4992254;28;20030;-84
2023/05/21 04:58:49;;;;;;;18.35;13.13;;;14.20;99.90;;;;;;4993320;28;20391;-84
2023/05/21 05:01:16;;;;;;;18.88;13.20;;;14.20;99.90;;;;;;4993407;28;20061;-83
2023/05/21 05:03:44;;;;;;;19.63;13.88;;;14.30;99.90;;;;;;4977908;28;20053;-84
2023/05/21 05:06:10;;;;;;;18.85;13.45;;;14.40;99.90;;;;;;4979877;28;20034;-84
2023/05/21 05:08:37;;;;;;;17.55;12.82;;;14.40;99.90;;;;;;4973852;28;20039;-83
2023/05/21 05:11:03;;;;;;;22.58;14.73;;;14.50;99.90;;;;;;4976499;28;20054;-82
2023/05/21 05:13:30;;;;;;;19.45;13.15;;;14.50;99.90;;;;;;4990842;28;20050;-84
2023/05/21 05:15:56;;;;;;;16.80;12.55;;;14.50;99.90;;;;;;4991618;28;20049;-79
2023/05/21 05:18:22;;;;;;;18.38;13.38;;;14.60;99.90;;;;;;4975819;28;20053;-81
2023/05/21 05:20:49;;;;;;;18.38;12.18;;;14.60;99.90;;;;;;4992247;28;20047;-79
2023/05/21 05:23:15;;;;;;;19.90;12.23;;;14.70;99.90;;;;;;4992671;28;20027;-82
2023/05/21 05:25:41;;;;;;;18.88;13.57;;;14.70;99.90;;;;;;4975425;28;20037;-80
2023/05/21 05:28:08;;;;;;;15.25;12.15;;;14.80;99.90;;;;;;4992041;28;20050;-80
2023/05/21 05:30:35;;;;;;;17.63;11.32;;;14.80;99.90;;;;;;4990914;28;20045;-81
2023/05/21 05:33:12;;;;;;;17.80;12.32;;;14.90;99.90;;;;;;5001097;28;20361;-83
2023/05/21 05:35:38;;;;;;;15.77;11.93;;;14.90;99.90;;;;;;4994751;28;20038;-79
2023/05/21 05:38:05;;;;;;;17.80;12.07;;;15.10;99.90;;;;;;5013623;28;20030;-79
2023/05/21 05:40:31;;;;;;;16.60;11.40;;;15.20;99.90;;;;;;5013120;28;20053;-84
2023/05/21 05:42:57;;;;;;;19.35;13.00;;;15.30;99.90;;;;;;5020305;28;20489;-80
2023/05/21 05:45:25;;;;;;;16.60;11.88;;;15.40;99.90;;;;;;5027740;28;20038;-83
2023/05/21 05:47:52;;;;;;;15.50;11.00;;;15.30;99.90;;;;;;5013424;28;20446;-83
2023/05/21 05:50:18;;;;;;;18.55;12.95;;;15.30;99.90;;;;;;5028630;28;20041;-83
2023/05/21 05:52:45;;;;;;;16.48;10.93;;;15.30;99.90;;;;;;5014684;28;20037;-84
2023/05/21 05:55:11;;;;;;;14.73;11.95;;;15.40;99.90;;;;;;5012470;28;20022;-85
2023/05/21 05:57:38;;;;;;;15.07;10.98;;;15.60;99.90;;;;;;5012126;28;20455;-79
2023/05/21 06:00:10;;;;;;;18.00;11.38;;;15.70;99.90;;;;;;5027342;28;20060;-83
2023/05/21 06:02:39;;;;;;;13.35;10.32;;;15.80;99.90;;;;;;5012348;28;20041;-77
2023/05/21 06:05:07;;;;;;;18.25;11.52;;;16.00;99.90;;;;;;5026413;28;20045;-75
2023/05/21 06:07:33;;;;;;;18.98;11.77;;;16.20;99.90;;;;;;5007745;28;20026;-81
2023/05/21 06:09:59;;;;;;;16.17;10.68;;;16.40;99.90;;;;;;5027775;28;20053;-80
2023/05/21 06:12:26;;;;;;;16.75;11.05;;;16.80;99.90;;;;;;5014702;28;20044;-89
2023/05/21 06:14:52;;;;;;;11.93;9.45;;;16.90;99.90;;;;;;4996071;28;20049;-85
2023/05/21 06:17:19;;;;;;;15.50;11.13;;;17.40;99.90;;;;;;5011458;28;20038;-86
2023/05/21 06:19:45;;;;;;;13.52;9.48;;;17.50;99.90;;;;;;5008843;28;20041;-79
2023/05/21 06:22:12;;;;;;;17.15;10.50;;;17.30;99.90;;;;;;4995839;28;20042;-83
2023/05/21 06:24:38;;;;;;;13.20;10.35;;;17.60;95.50;;;;;;4992808;28;20041;-79
2023/05/21 06:27:04;;;;;;;13.95;10.25;;;17.50;99.70;;;;;;5021347;28;20048;-82
2023/05/21 06:29:34;;;;;;;13.55;9.50;;;17.70;98.90;;;;;;4991041;28;20048;-79
2023/05/21 06:32:02;;;;;;;15.73;9.57;;;17.90;86.80;;;;;;5032966;28;20426;-82
2023/05/21 06:34:41;;;;;;;12.95;9.35;;;17.80;88.90;;;;;;4993212;28;20056;-80
2023/05/21 06:37:07;;;;;;;12.88;10.25;;;17.90;83.80;;;;;;4974570;28;20051;-77
2023/05/21 06:39:54;;;;;;;12.38;9.57;;;17.80;85.90;;;;;;4963610;28;20088;-84
2023/05/21 06:42:25;;;;;;;12.43;9.93;;;17.90;86.10;;;;;;4940141;28;20043;-79
2023/05/21 06:45:12;;;;;;;10.57;8.90;;;18.20;57.20;;;;;;4917832;29;20032;-82
2023/05/21 06:47:43;;;;;;;13.15;9.35;;;18.70;26.60;;;;;;4897264;29;20036;-81
2023/05/21 06:50:10;;;;;;;12.02;9.45;;;19.00;17.90;;;;;;4924429;29;20044;-81
2023/05/21 06:52:41;;;;;;;12.45;9.15;;;19.30;1.00;;;;;;4936720;29;20040;-79
2023/05/21 06:55:09;;;;;;;11.85;9.75;;;19.10;1.00;;;;;;4906159;29;20051;-79
2023/05/21 06:58:02;;;;;;;10.30;9.07;;;19.60;1.00;;;;;;4926508;29;20481;-79
2023/05/21 07:00:34;;;;;;;10.85;9.05;;;20.70;1.00;;;;;;4935748;29;20047;-80
2023/05/21 07:03:00;;;;;;;10.02;8.98;;;19.90;1.00;;;;;;4934566;29;20066;-81
2023/05/21 07:05:26;;;;;;;12.88;10.00;;;20.00;1.00;;;;;;4930843;29;20570;-81
2023/05/21 07:07:54;;;;;;;12.80;8.98;;;20.30;1.00;;;;;;4932893;28;20065;-80
2023/05/21 07:10:20;;;;;;;12.73;10.70;;;20.80;1.00;;;;;;4973758;28;20045;-79
2023/05/21 07:12:46;;;;;;;10.57;9.38;;;20.10;1.00;;;;;;4966500;28;20039;-79
2023/05/21 07:15:13;;;;;;;11.70;8.98;;;19.80;1.00;;;;;;4969108;28;20038;-86
2023/05/21 07:17:40;;;;;;;12.30;9.57;;;19.60;1.00;;;;;;4961258;28;20089;-78
2023/05/21 07:20:08;;;;;;;12.45;9.73;;;19.70;1.00;;;;;;4918602;29;20067;-80
2023/05/21 07:22:38;;;;;;;13.13;9.60;;;20.10;1.00;;;;;;4932017;29;20043;-81
2023/05/21 07:25:05;;;;;;;11.63;9.43;;;19.90;1.00;;;;;;4930433;29;20438;-80
2023/05/21 07:27:31;;;;;;;10.43;9.00;;;19.90;1.00;;;;;;4931509;29;20028;-80
2023/05/21 07:29:58;;;;;;;11.93;8.60;;;20.10;1.00;;;;;;4966580;28;20488;-76
2023/05/21 07:32:27;;;;;;;14.80;9.20;;;20.70;1.00;;;;;;4987116;28;20492;-77
2023/05/21 07:34:54;;;;;;;12.05;9.77;;;21.30;1.00;;;;;;4968353;28;20034;-80
2023/05/21 07:37:24;;;;;;;10.68;9.57;;;21.10;1.00;;;;;;4971676;28;20050;-81
2023/05/21 07:39:50;;;;;;;13.70;8.70;;;21.00;1.00;;;;;;4986815;28;20058;-84
2023/05/21 07:42:17;;;;;;;11.60;9.00;;;21.70;1.00;;;;;;4984544;28;20046;-83
2023/05/21 07:44:43;;;;;;;13.95;9.80;;;22.40;1.00;;;;;;4969651;28;20038;-80
2023/05/21 07:47:10;;;;;;;10.50;8.90;;;22.50;1.00;;;;;;4985892;28;20129;-82
2023/05/21 07:49:36;;;;;;;10.95;8.80;;;22.00;1.00;;;;;;4968505;28;20045;-81
2023/05/21 07:52:03;;;;;;;15.23;9.15;;;22.00;1.00;;;;;;4976132;28;20349;-81
2023/05/21 07:54:29;;;;;;;12.02;8.57;;;22.00;1.00;;;;;;4970012;28;20073;-80
2023/05/21 07:56:57;;;;;;;11.63;9.20;;;21.60;1.00;;;;;;4989212;28;20475;-82
2023/05/21 07:59:43;;;;;;;13.63;9.63;;;21.50;1.00;;;;;;4999434;28;20034;-81
2023/05/21 08:02:10;;;;;;;13.30;9.52;;;21.70;1.00;;;;;;5019582;28;20050;-81
2023/05/21 08:04:37;;;;;;;9.77;8.77;;;21.50;1.00;;;;;;5022602;28;20042;-80
2023/05/21 08:07:04;;;;;;;9.20;7.95;;;21.70;1.00;;;;;;5002439;28;20414;-81
2023/05/21 08:09:31;;;;;;;11.27;9.10;;;22.70;1.00;;;;;;5025627;28;20030;-80
2023/05/21 08:11:58;;;;;;;12.23;9.48;;;23.40;1.00;;;;;;5006173;28;20061;-82
2023/05/21 08:14:24;;;;;;;11.07;9.10;;;23.50;1.00;;;;;;5005218;28;20041;-81
2023/05/21 08:16:50;;;;;;;9.48;8.50;;;22.80;1.00;;;;;;5012037;28;20036;-79
2023/05/21 08:19:17;;;;;;;11.13;8.32;;;22.10;1.00;;;;;;5021783;28;20042;-81
2023/05/21 08:21:43;;;;;;;9.30;8.05;;;22.10;1.00;;;;;;5007902;28;20046;-79
2023/05/21 08:24:11;;;;;;;10.32;8.77;;;22.80;1.00;;;;;;5013849;28;20045;-79
2023/05/21 08:26:37;;;;;;;11.05;8.57;;;21.90;1.00;;;;;;5021204;28;20375;-81
2023/05/21 08:29:03;;;;;;;10.82;9.15;;;21.80;1.00;;;;;;5006876;28;20056;-81
2023/05/21 08:31:30;;;;;;;14.77;8.35;;;22.40;1.00;;;;;;5007983;28;20033;-81
2023/05/21 08:33:56;;;;;;;10.25;9.10;;;22.80;1.00;;;;;;4984365;28;20423;-80
2023/05/21 08:36:33;;;;;;;14.15;8.82;;;23.30;99.90;;;;;;5010060;28;20505;-81
2023/05/21 08:39:07;;;;;;;8.75;7.82;;;23.50;99.90;;;;;;5007055;28;20034;-81
2023/05/21 08:41:37;;;;;;;9.85;8.15;;;23.30;99.90;;;;;;5007399;28;20033;-81
2023/05/21 08:44:10;;;;;;;10.10;8.88;;;22.50;1.00;;;;;;5013412;28;20049;-83
2023/05/21 08:46:38;;;;;;;10.73;7.88;;;22.40;1.00;;;;;;5023553;28;20227;-83
2023/05/21 08:49:07;;;;;;;9.02;8.13;;;22.80;1.00;;;;;;5004794;28;20046;-82
2023/05/21 08:51:34;;;;;;;13.75;9.45;;;22.60;1.00;;;;;;5023780;28;20037;-80
2023/05/21 08:54:03;;;;;;;11.38;8.88;;;22.60;1.00;;;;;;5009526;28;20025;-79
2023/05/21 08:56:30;;;;;;;11.57;8.60;;;22.20;1.00;;;;;;5009482;28;20034;-79
2023/05/21 08:58:58;;;;;;;11.45;8.68;;;21.90;1.00;;;;;;5021191;28;20049;-78
2023/05/21 09:01:27;;;;;;;;;;;21.80;1.00;;;;;;5010868;28;20490;-80
2023/05/21 09:04:03;;;;;;;10.73;9.55;;;22.10;1.00;;;;;;5008442;28;20274;-82
2023/05/21 09:06:32;;;;;;;12.15;8.55;;;22.30;1.00;;;;;;5004210;28;20038;-81
2023/05/21 09:09:11;;;;;;;8.60;7.47;;;22.80;99.90;;;;;;5011225;28;20033;-80
2023/05/21 09:11:45;;;;;;;10.57;8.30;;;23.30;99.90;;;;;;5007837;28;20049;-78
2023/05/21 09:14:13;;;;;;;9.00;8.10;;;23.30;99.90;;;;;;5009655;28;20038;-78
2023/05/21 09:16:54;;;;;;;9.80;7.90;;;23.80;99.90;;;;;;5026921;28;20061;-78
2023/05/21 09:19:23;;;;;;;9.18;8.00;;;23.70;99.90;;;;;;5010563;28;20053;-80
2023/05/21 09:21:51;;;;;;;10.48;8.85;;;22.60;99.90;;;;;;5012919;28;20034;-78
2023/05/21 09:24:22;;;;;;;11.35;8.05;;;22.70;99.90;;;;;;5010229;28;20064;-79
2023/05/21 09:26:50;;;;;;;8.73;7.10;;;23.10;99.90;;;;;;5011987;28;20041;-79
2023/05/21 09:29:16;;;;;;;13.60;8.73;;;23.10;99.90;;;;;;5011809;28;20030;-77
2023/05/21 09:31:44;;;;;;;12.00;8.02;;;23.30;99.90;;;;;;5011679;28;20041;-77
2023/05/21 09:34:12;;;;;;;11.20;8.82;;;23.00;99.90;;;;;;5010808;28;20042;-78
2023/05/21 09:36:40;;;;;;;10.38;8.10;;;23.10;99.90;;;;;;5007790;28;20045;-79
2023/05/21 09:39:06;;;;;;;9.93;7.80;;;23.50;99.90;;;;;;5013178;28;20034;-78
2023/05/21 09:41:34;;;;;;;9.90;8.82;;;23.90;99.90;;;;;;5008455;28;20054;-80
2023/05/21 09:44:01;;;;;;;11.77;8.30;;;23.60;99.90;;;;;;5006255;28;20026;-79
2023/05/21 09:46:42;;;;;;;9.80;7.63;;;23.20;99.90;;;;;;5027056;28;20038;-80
2023/05/21 09:49:25;;;;;;;10.02;8.45;;;22.80;99.90;;;;;;5010977;28;20041;-81
2023/05/21 09:51:57;;;;;;;8.93;8.02;;;23.10;1.00;;;;;;5019412;28;20037;-79
2023/05/21 09:54:29;;;;;;;11.05;8.70;;;23.80;99.90;;;;;;5010603;28;20474;-79
2023/05/21 09:56:55;;;;;;;11.70;8.95;;;23.60;99.90;;;;;;5012666;28;20034;-81
2023/05/21 09:59:22;;;;;;;11.60;9.23;;;24.10;99.90;;;;;;5005753;28;20022;-78
2023/05/21 10:01:51;;;;;;;8.68;7.70;;;24.80;99.90;;;;;;5006567;28;20034;-81
2023/05/21 10:04:18;;;;;;;9.77;8.07;;;24.80;99.90;;;;;;5011419;28;20045;-77
2023/05/21 10:06:46;;;;;;;11.98;8.50;;;24.40;99.90;;;;;;5011575;28;20025;-77
2023/05/21 10:09:15;;;;;;;9.55;8.13;;;24.60;99.90;;;;;;5012265;28;20026;-79
2023/05/21 10:11:44;;;;;;;9.67;7.63;;;24.60;99.90;;;;;;5026760;28;20458;-78
2023/05/21 10:14:21;;;;;;;10.18;7.90;;;25.30;99.90;;;;;;5019770;28;20451;-79
2023/05/21 10:16:47;;;;;;;9.20;7.50;;;24.90;99.90;;;;;;5023316;28;20030;-79
2023/05/21 10:19:15;;;;;;;10.88;8.52;;;24.70;99.90;;;;;;5011459;28;20034;-78
2023/05/21 10:21:41;;;;;;;9.48;8.40;;;24.50;99.90;;;;;;5011222;28;20026;-77
2023/05/21 10:24:09;;;;;;;9.88;7.90;;;23.90;99.90;;;;;;5011399;28;20033;-78
2023/05/21 10:26:37;;;;;;;8.68;7.53;;;23.70;99.90;;;;;;5011547;28;20030;-79
2023/05/21 10:29:03;;;;;;;8.45;7.20;;;23.60;99.90;;;;;;5012018;28;20374;-75
2023/05/21 10:31:31;;;;;;;8.40;7.57;;;24.30;99.90;;;;;;5011088;28;20036;-79
2023/05/21 10:33:59;;;;;;;9.35;8.13;;;24.20;99.90;;;;;;5010935;28;20069;-78
2023/05/21 10:36:32;;;;;;;9.90;7.80;;;24.00;99.90;;;;;;5010644;28;20034;-79
2023/05/21 10:39:00;;;;;;;12.90;7.95;;;24.30;99.90;;;;;;5012275;28;20461;-75
2023/05/21 10:41:30;;;;;;;9.73;7.32;;;24.40;99.90;;;;;;5010879;28;20022;-75
2023/05/21 10:44:23;;;;;;;8.32;7.40;;;24.60;99.90;;;;;;5011186;28;20038;-78
2023/05/21 10:46:59;;;;;;;11.15;7.40;;;24.20;99.90;;;;;;5008424;28;20647;-78
2023/05/21 10:50:05;;;;;;;9.00;6.93;;;24.20;99.90;;;;;;5008527;28;20026;-79
2023/05/21 10:53:13;;;;;;;8.65;6.70;;;24.30;99.90;;;;;;4978115;28;20038;-75
2023/05/21 10:56:07;;;;;;;7.93;7.13;;;24.50;99.90;;;;;;4969598;28;20045;-82
2023/05/21 10:58:52;;;;;;;7.70;6.70;;;24.60;99.90;;;;;;5007642;28;20352;-79
2023/05/21 11:01:18;;;;;;;8.32;6.65;;;24.50;99.90;;;;;;5004574;28;20030;-80
2023/05/21 11:03:47;;;;;;;7.80;7.03;;;24.40;99.90;;;;;;5010359;28;20038;-74
2023/05/21 11:06:23;;;;;;;10.57;7.03;;;24.70;99.90;;;;;;5011364;28;20352;-75
2023/05/21 11:08:52;;;;;;;8.88;7.10;;;24.90;99.90;;;;;;5005024;28;20037;-78
2023/05/21 11:11:49;;;;;;;10.73;7.00;;;24.90;99.90;;;;;;5005760;28;20031;-79
2023/05/21 11:14:36;;;;;;;8.98;6.57;;;25.10;99.90;;;;;;5000411;28;20034;-78
2023/05/21 11:17:08;;;;;;;8.77;7.00;;;25.50;99.90;;;;;;5010748;28;20038;-78
2023/05/21 11:19:42;;;;;;;8.25;6.80;;;25.50;99.90;;;;;;5010097;28;20029;-77
2023/05/21 11:22:20;;;;;;;12.88;7.38;;;25.60;99.90;;;;;;5011078;28;20030;-78
2023/05/21 11:24:46;;;;;;;8.63;7.55;;;25.70;99.90;;;;;;5025192;28;20053;-81
2023/05/21 11:27:12;;;;;;;8.82;6.72;;;25.50;99.90;;;;;;5011469;28;20026;-77
2023/05/21 11:29:43;;;;;;;10.82;7.05;;;25.50;99.90;;;;;;5007323;28;20025;-79
2023/05/21 11:32:11;;;;;;;9.38;6.85;;;25.50;99.90;;;;;;5008561;28;20052;-78
2023/05/21 11:34:44;;;;;;;10.35;8.05;;;25.50;99.90;;;;;;5006933;28;20050;-77
2023/05/21 11:37:17;;;;;;;9.20;7.05;;;25.60;99.90;;;;;;5009796;28;20049;-78
2023/05/21 11:39:44;;;;;;;9.40;7.78;;;25.70;99.90;;;;;;5007138;28;20034;-76
2023/05/21 11:42:10;;;;;;;8.32;6.65;;;25.80;99.90;;;;;;5006936;28;20127;-80
2023/05/21 11:44:47;;;;;;;10.13;7.15;;;25.70;99.90;;;;;;5007709;28;20025;-79
2023/05/21 11:47:15;;;;;;;7.93;6.78;;;25.70;99.90;;;;;;5012362;28;20053;-78
2023/05/21 11:49:41;;;;;;;9.30;7.50;;;26.00;99.90;;;;;;5010381;28;20459;-79
2023/05/21 11:52:09;;;;;;;7.93;7.13;;;25.90;99.90;;;;;;5014473;28;20030;-80
2023/05/21 11:54:47;;;;;;;12.88;7.20;;;26.00;99.90;;;;;;5013196;28;20061;-79
2023/05/21 11:57:15;;;;;;;9.40;6.50;;;25.90;99.90;;;;;;5012515;28;20046;-80
2023/05/21 11:59:41;;;;;;;8.70;6.82;;;25.80;99.90;;;;;;5014145;28;20030;-81
2023/05/21 12:02:07;;;;;;;10.35;7.20;;;25.70;99.90;;;;;;5012798;28;20513;-81
2023/05/21 12:04:35;;;;;;;9.43;6.93;;;25.90;99.90;;;;;;5010749;28;20033;-80
2023/05/21 12:07:08;;;;;;;11.50;7.13;;;26.20;99.90;;;;;;5010241;28;20356;-81
2023/05/21 12:09:46;;;;;;;7.72;6.38;;;26.40;99.90;;;;;;5006524;28;20034;-80
2023/05/21 12:12:15;;;;;;;7.70;6.90;;;26.30;99.90;;;;;;5009109;28;20674;-80
2023/05/21 12:14:45;;;;;;;9.23;6.87;;;26.20;99.90;;;;;;5007976;28;20025;-81
2023/05/21 12:17:15;;;;;;;9.55;6.32;;;26.30;99.90;;;;;;5011408;28;20034;-76
2023/05/21 12:19:42;;;;;;;13.82;7.50;;;26.00;99.90;;;;;;5011074;28;20030;-75
2023/05/21 12:22:09;;;;;;;8.90;6.30;;;26.10;99.90;;;;;;5010988;28;20029;-81
2023/05/21 12:24:36;;;;;;;7.75;6.35;;;26.50;99.90;;;;;;5009467;28;20029;-79
2023/05/21 12:27:08;;;;;;;9.80;6.32;;;26.60;99.90;;;;;;5011671;28;20033;-81
2023/05/21 12:29:39;;;;;;;7.63;6.00;;;26.60;99.90;;;;;;5012396;28;20026;-79
2023/05/21 12:32:07;;;;;;;8.27;6.00;;;26.80;99.90;;;;;;5008944;28;20475;-77
2023/05/21 12:34:53;;;;;;;6.45;5.80;;;27.00;99.90;;;;;;5009951;28;20037;-81
2023/05/21 12:37:21;;;;;;;8.98;6.40;;;27.20;99.90;;;;;;5009389;28;20037;-77
2023/05/21 12:39:49;;;;;;;8.80;6.30;;;27.30;99.90;;;;;;5008182;28;20041;-79
2023/05/21 12:42:16;;;;;;;9.25;5.60;;;27.50;99.90;;;;;;5013877;28;20057;-77
2023/05/21 12:44:46;;;;;;;7.05;5.65;;;27.40;99.90;;;;;;5011970;28;20030;-79
2023/05/21 12:47:13;;;;;;;7.10;5.85;;;27.20;99.90;;;;;;5028223;28;20456;-81